Farmington ASC

2020-09-27 21:00:00

  • imperial
Date Time Air Temperature Relative Humidity Dewpoint Windchill Heat Index Wind Speed Wind Dir. Rain Solar Radiation Soil Temperature
2m 2m 3m 3m 10cm
US/Mountain F % F F F MPH deg in MJ/m^2 F
max avg avg
2020-09-26 21:25:00 59.1 18.1 15.7 59.1 59.1 2.8 4.0 3.0 81.7 82.8 0.00 0.0000000 65.1
2020-09-26 21:30:00 59.2 17.6 15.2 59.2 59.2 3.1 3.5 2.7 84.3 81.3 0.00 0.0000000 65.1
2020-09-26 21:35:00 58.8 17.7 15.0 58.8 58.8 2.6 3.7 2.7 114.9 78.8 0.00 0.0000000 65.0
2020-09-26 21:40:00 59.0 17.7 15.1 59.0 59.0 2.4 3.5 2.8 69.3 67.0 0.00 0.0000000 64.9
2020-09-26 21:45:00 58.7 18.1 15.3 58.7 58.7 1.9 3.0 2.4 64.6 67.3 0.00 0.0000000 64.8
2020-09-26 21:50:00 58.0 19.0 15.9 58.0 58.0 1.5 2.1 1.8 63.8 66.3 0.00 0.0000000 64.7
2020-09-26 21:55:00 57.1 21.0 17.5 57.1 57.1 1.9 2.4 1.8 63.4 67.5 0.00 0.0000000 64.7
2020-09-26 22:00:00 56.4 19.3 15.0 56.4 56.4 3.1 3.3 1.8 64.8 60.1 0.00 0.0000000 64.6
2020-09-26 22:05:00 57.0 19.4 15.6 57.0 57.0 2.2 3.5 2.2 69.9 65.6 0.00 0.0000000 64.5
2020-09-26 22:10:00 59.0 17.9 15.4 59.0 59.0 1.5 2.2 1.6 72.1 71.9 0.00 0.0000000 64.4
2020-09-26 22:15:00 60.5 17.7 16.4 60.5 60.5 3.0 3.0 1.9 69.3 70.1 0.00 0.0000000 64.4
2020-09-26 22:20:00 59.3 17.7 15.3 59.3 59.3 2.4 2.8 2.4 44.7 59.4 0.00 0.0000000 64.3
2020-09-26 22:25:00 59.2 18.3 16.0 59.2 59.2 1.5 2.8 2.2 62.2 47.8 0.00 0.0000000 64.2
2020-09-26 22:30:00 59.3 18.2 16.0 59.3 59.3 1.7 2.4 2.0 69.5 58.6 0.00 0.0000000 64.1
2020-09-26 22:35:00 59.0 18.1 15.7 59.0 59.0 2.8 3.1 2.4 43.4 69.4 0.00 0.0000000 64.1
2020-09-26 22:40:00 58.7 19.1 16.6 58.7 58.7 2.1 3.0 2.4 28.1 50.1 0.00 0.0000000 64.0
2020-09-26 22:45:00 58.9 18.9 16.5 58.9 58.9 2.2 3.0 2.4 73.4 57.1 0.00 0.0000000 63.9
2020-09-26 22:50:00 59.0 19.8 17.7 59.0 59.0 2.4 3.5 2.4 109.2 99.3 0.00 0.0000000 63.9
2020-09-26 22:55:00 57.6 19.3 15.9 57.6 57.6 2.2 3.0 2.4 46.5 76.2 0.00 0.0000000 63.8
2020-09-26 23:00:00 56.8 20.7 16.9 56.8 56.8 2.8 3.1 2.2 86.1 65.5 0.00 0.0000000 63.7
2020-09-26 23:05:00 58.3 20.4 17.9 58.3 58.3 4.0 4.0 2.8 98.1 102.5 0.00 0.0000000 63.7
2020-09-26 23:10:00 58.9 20.0 17.9 58.9 58.9 1.9 3.8 2.7 96.4 95.7 0.00 0.0000000 63.6
2020-09-26 23:15:00 58.2 20.8 18.2 58.2 58.2 2.2 2.8 2.1 102.6 84.9 0.00 0.0000000 63.6
2020-09-26 23:20:00 58.1 20.4 17.7 58.1 58.1 1.9 2.6 1.9 66.6 52.3 0.00 0.0000000 63.5
2020-09-26 23:25:00 58.1 19.4 16.5 58.1 58.1 2.1 3.0 1.9 31.5 47.4 0.00 0.0000000 63.4
2020-09-26 23:30:00 58.7 19.4 17.0 58.7 58.7 2.6 3.1 2.4 59.6 53.7 0.00 0.0000000 63.4
2020-09-26 23:35:00 58.6 18.7 16.1 58.6 58.6 2.1 3.1 2.3 63.2 67.7 0.00 0.0000000 63.3
2020-09-26 23:40:00 58.3 19.3 16.5 58.3 58.3 2.2 2.6 2.2 57.4 61.7 0.00 0.0000000 63.2
2020-09-26 23:45:00 58.1 19.6 16.7 58.1 58.1 2.1 2.4 1.9 57.5 55.0 0.00 0.0000000 63.2
2020-09-26 23:50:00 57.6 19.5 16.2 57.6 57.6 2.1 2.6 2.2 64.6 71.3 0.00 0.0000000 63.1
2020-09-26 23:55:00 57.5 19.5 16.1 57.5 57.5 2.1 3.0 2.4 62.3 76.5 0.00 0.0000000 63.1
2020-09-27 00:00:00 57.0 20.2 16.5 57.0 57.0 1.7 3.1 2.3 69.9 64.2 0.00 0.0000000 63.0
2020-09-27 00:05:00 56.0 20.6 16.1 56.0 56.0 2.1 2.2 1.9 71.2 57.7 0.00 0.0000000 62.9
2020-09-27 00:10:00 55.8 21.3 16.8 55.8 55.8 2.1 3.1 2.3 62.9 61.5 0.00 0.0000000 62.9
2020-09-27 00:15:00 55.0 20.8 15.6 55.0 55.0 2.2 2.8 2.3 51.4 61.5 0.00 0.0000000 62.8
2020-09-27 00:20:00 55.3 21.0 15.9 55.3 55.3 2.6 2.8 2.2 45.6 52.2 0.00 0.0000000 62.7
2020-09-27 00:25:00 55.6 21.1 16.4 55.6 55.6 2.6 3.0 2.3 29.4 43.3 0.00 0.0000000 62.7
2020-09-27 00:30:00 57.2 20.3 16.7 57.2 57.2 2.8 3.3 2.7 52.0 51.1 0.00 0.0000000 62.6
2020-09-27 00:35:00 57.8 19.2 16.0 57.8 57.8 2.4 3.1 2.2 52.8 49.0 0.00 0.0000000 62.5
2020-09-27 00:40:00 57.4 19.5 16.0 57.4 57.4 2.1 3.1 2.4 67.3 61.3 0.00 0.0000000 62.5
2020-09-27 00:45:00 57.3 19.2 15.5 57.3 57.3 2.2 2.8 2.3 89.5 78.2 0.00 0.0000000 62.4
2020-09-27 00:50:00 56.2 20.9 16.7 56.2 56.2 1.9 2.6 1.8 89.9 85.8 0.00 0.0000000 62.4
2020-09-27 00:55:00 55.9 20.5 16.0 55.9 55.9 2.2 2.2 1.8 98.0 77.6 0.00 0.0000000 62.3
2020-09-27 01:00:00 55.8 20.1 15.4 55.8 55.8 3.3 3.3 2.6 50.5 71.0 0.00 0.0000000 62.3
2020-09-27 01:05:00 55.8 20.5 15.9 55.8 55.8 2.8 3.3 2.6 61.5 49.9 0.00 0.0000000 62.2
2020-09-27 01:10:00 56.2 21.4 17.2 56.2 56.2 1.9 3.0 2.1 60.1 53.3 0.00 0.0000000 62.1
2020-09-27 01:15:00 56.1 21.2 16.9 56.1 56.1 3.3 3.3 2.4 57.6 53.2 0.00 0.0000000 62.1
2020-09-27 01:20:00 55.3 21.2 16.1 55.3 55.3 2.8 4.2 2.8 48.8 60.2 0.00 0.0000000 62.0
2020-09-27 01:25:00 54.0 21.9 15.8 54.0 54.0 2.1 3.3 2.2 49.1 53.8 0.00 0.0000000 61.9
2020-09-27 01:30:00 54.5 21.9 16.2 54.5 54.5 2.4 3.1 2.4 54.1 50.8 0.00 0.0000000 61.9
2020-09-27 01:35:00 54.9 21.5 16.2 54.9 54.9 2.1 3.1 2.6 54.4 57.1 0.00 0.0000000 61.8
2020-09-27 01:40:00 53.4 23.1 16.6 53.4 53.4 2.2 3.7 2.6 60.6 54.6 0.00 0.0000000 61.8
2020-09-27 01:45:00 52.8 23.8 16.8 52.8 52.8 4.0 4.0 3.0 48.4 58.8 0.00 0.0000000 61.7
2020-09-27 01:50:00 51.9 25.1 17.2 51.9 51.9 3.0 3.7 2.1 94.6 78.3 0.00 0.0000000 61.6
2020-09-27 01:55:00 51.5 26.1 17.8 51.5 51.5 2.2 3.1 2.1 75.0 67.6 0.00 0.0000000 61.6
2020-09-27 02:00:00 50.3 26.1 16.8 50.3 50.3 2.1 2.4 1.8 81.0 69.2 0.00 0.0000000 61.5
2020-09-27 02:05:00 49.7 27.8 17.7 49.7 49.7 1.7 2.1 1.6 69.4 71.8 0.00 0.0000000 61.5
2020-09-27 02:10:00 48.6 29.3 17.9 48.6 48.6 1.3 1.9 1.3 59.6 54.1 0.00 0.0000000 61.4
2020-09-27 02:15:00 47.9 28.1 16.5 47.9 47.9 2.8 2.8 2.1 73.6 62.4 0.00 0.0000000 61.3
2020-09-27 02:20:00 50.0 27.3 17.5 50.0 50.0 3.1 3.3 2.5 75.4 86.0 0.00 0.0000000 61.3
2020-09-27 02:25:00 50.0 29.6 19.4 50.0 50.0 2.8 3.5 2.4 66.0 70.2 0.00 0.0000000 61.2
2020-09-27 02:30:00 50.4 26.4 17.1 50.4 50.4 3.0 3.3 2.7 61.6 67.4 0.00 0.0000000 61.2
2020-09-27 02:35:00 51.5 25.2 16.9 51.5 51.5 2.8 3.5 2.9 81.7 78.2 0.00 0.0000000 61.1
2020-09-27 02:40:00 51.3 26.8 18.2 51.3 51.3 1.9 2.6 2.2 65.6 72.4 0.00 0.0000000 61.1
2020-09-27 02:45:00 50.7 27.1 18.0 50.7 50.7 2.6 3.0 2.6 97.0 68.0 0.00 0.0000000 61.0
2020-09-27 02:50:00 52.6 24.1 16.9 52.6 52.6 3.1 3.1 2.5 66.2 68.4 0.00 0.0000000 61.0
2020-09-27 02:55:00 52.8 24.6 17.5 52.8 52.8 3.0 3.1 2.4 66.6 62.4 0.00 0.0000000 60.9
2020-09-27 03:00:00 54.5 23.5 17.9 54.5 54.5 1.7 3.1 2.4 77.0 49.3 0.00 0.0000000 60.8
2020-09-27 03:05:00 54.8 23.9 18.5 54.8 54.8 2.2 2.2 1.6 43.0 51.4 0.00 0.0000000 60.8
2020-09-27 03:10:00 54.2 28.7 22.4 54.2 54.2 1.7 2.4 1.7 102.0 68.6 0.00 0.0000000 60.7
2020-09-27 03:15:00 53.5 26.3 19.8 53.5 53.5 1.9 3.1 2.0 80.0 89.5 0.00 0.0000000 60.7
2020-09-27 03:20:00 53.0 26.9 19.7 53.0 53.0 1.3 3.0 1.9 102.9 102.5 0.00 0.0000000 60.7
2020-09-27 03:25:00 51.7 31.8 22.7 51.7 51.7 2.6 3.0 1.9 108.5 70.9 0.00 0.0000000 60.6
2020-09-27 03:30:00 52.6 33.6 24.7 52.6 52.6 2.8 3.5 3.0 113.6 128.8 0.00 0.0000000 60.5
2020-09-27 03:35:00 52.4 35.7 26.0 52.4 52.4 3.0 4.0 3.5 130.3 138.9 0.00 0.0000000 60.5
2020-09-27 03:40:00 51.9 33.3 23.9 51.9 51.9 1.9 3.1 2.4 79.3 118.1 0.00 0.0000000 60.4
2020-09-27 03:45:00 52.3 30.7 22.3 52.3 52.3 2.8 3.3 2.2 81.6 73.9 0.00 0.0000000 60.4
2020-09-27 03:50:00 52.2 29.0 20.9 52.2 52.2 2.2 2.6 2.3 98.8 90.9 0.00 0.0000000 60.3
2020-09-27 03:55:00 51.5 29.5 20.7 51.5 51.5 2.6 2.8 2.4 53.9 66.9 0.00 0.0000000 60.3
2020-09-27 04:00:00 51.6 30.4 21.5 51.6 51.6 2.6 3.1 2.4 49.4 56.4 0.00 0.0000000 60.2
2020-09-27 04:05:00 52.1 28.8 20.6 52.1 52.1 2.4 3.1 2.6 56.0 59.1 0.00 0.0000000 60.2
2020-09-27 04:10:00 51.0 30.1 20.7 51.0 51.0 3.0 3.0 2.0 43.5 72.2 0.00 0.0000000 60.1
2020-09-27 04:15:00 50.4 33.8 22.9 50.4 50.4 4.6 4.6 3.0 111.6 91.8 0.00 0.0000000 60.1
2020-09-27 04:20:00 50.2 33.1 22.2 50.2 50.2 3.5 4.2 2.6 84.2 98.4 0.00 0.0000000 60.0
2020-09-27 04:25:00 50.4 32.1 21.7 50.4 50.4 2.8 4.0 3.3 73.7 94.3 0.00 0.0000000 60.0
2020-09-27 04:30:00 50.3 30.8 20.7 50.3 50.3 3.3 3.7 3.2 65.6 66.2 0.00 0.0000000 59.9
2020-09-27 04:35:00 50.1 30.7 20.4 50.1 50.1 2.8 3.3 2.7 49.3 64.0 0.00 0.0000000 59.9
2020-09-27 04:40:00 50.4 31.7 21.4 50.4 50.4 2.6 3.3 2.8 48.2 55.9 0.00 0.0000000 59.9
2020-09-27 04:45:00 51.0 31.4 21.7 51.0 51.0 2.1 3.5 2.6 60.1 50.0 0.00 0.0000000 59.8
2020-09-27 04:50:00 50.6 30.3 20.5 50.6 50.6 2.8 3.1 2.2 61.9 52.4 0.00 0.0000000 59.8
2020-09-27 04:55:00 49.5 30.4 19.7 49.5 49.5 1.7 3.0 2.0 59.4 70.7 0.00 0.0000000 59.7
2020-09-27 05:00:00 48.6 32.0 20.0 48.6 48.6 1.9 2.2 1.9 74.5 73.2 0.00 0.0000000 59.7
2020-09-27 05:05:00 47.6 33.4 20.2 47.6 47.6 3.0 3.0 2.0 63.9 78.7 0.00 0.0000000 59.6
2020-09-27 05:10:00 47.8 31.5 19.0 47.8 47.8 2.4 4.2 3.0 55.2 60.2 0.00 0.0000000 59.6
2020-09-27 05:15:00 47.6 31.2 18.6 47.6 47.6 3.0 3.5 2.5 61.9 65.1 0.00 0.0000000 59.5
2020-09-27 05:20:00 48.0 31.4 19.1 48.0 48.0 1.3 3.1 2.3 93.6 63.1 0.00 0.0000000 59.5
2020-09-27 05:25:00 47.6 31.9 19.1 47.6 47.6 2.1 2.1 1.8 62.1 70.5 0.00 0.0000000 59.4
2020-09-27 05:30:00 46.8 32.0 18.4 46.8 46.8 1.3 2.4 2.0 62.5 68.8 0.00 0.0000000 59.4
2020-09-27 05:35:00 47.1 31.6 18.4 47.1 47.1 2.6 2.6 1.7 69.5 54.8 0.00 0.0000000 59.3
2020-09-27 05:40:00 47.2 32.3 19.0 47.2 47.2 1.9 2.4 1.8 90.0 77.9 0.00 0.0000000 59.3
2020-09-27 05:45:00 46.9 32.2 18.6 46.9 46.9 2.6 2.8 2.1 75.5 86.4 0.00 0.0000000 59.2
2020-09-27 05:50:00 46.4 32.5 18.5 46.4 46.4 2.2 2.6 2.1 60.2 75.2 0.00 0.0000000 59.2
2020-09-27 05:55:00 45.8 33.4 18.6 44.5 45.8 3.5 3.5 2.3 121.6 79.3 0.00 0.0000000 59.1
2020-09-27 06:00:00 46.8 34.0 19.9 46.8 46.8 2.6 4.0 3.3 98.4 101.4 0.00 0.0000000 59.1
2020-09-27 06:05:00 47.2 32.8 19.4 47.2 47.2 2.4 2.8 2.2 44.5 66.1 0.00 0.0000000 59.1
2020-09-27 06:10:00 49.2 29.8 18.9 49.2 49.2 2.4 4.4 3.2 118.3 87.4 0.00 0.0000000 59.0
2020-09-27 06:15:00 49.2 29.1 18.4 49.2 49.2 3.0 3.5 2.7 70.8 82.5 0.00 0.0000000 59.0
2020-09-27 06:20:00 49.6 28.9 18.5 49.6 49.6 2.2 4.4 2.7 66.9 81.8 0.00 0.0000000 58.9
2020-09-27 06:25:00 50.1 30.4 20.2 50.1 50.1 3.0 3.7 2.4 116.5 100.8 0.00 0.0000000 58.9
2020-09-27 06:30:00 50.3 29.5 19.7 50.3 50.3 1.5 3.7 2.1 40.1 111.2 0.00 0.0000000 58.9
2020-09-27 06:35:00 49.4 31.5 20.4 49.4 49.4 3.0 3.0 1.9 25.1 34.0 0.00 0.0000000 58.8
2020-09-27 06:40:00 49.9 31.5 20.9 49.2 49.9 3.5 3.8 2.9 33.3 76.9 0.00 0.0000000 58.8
2020-09-27 06:45:00 50.0 30.3 20.0 50.0 50.0 2.4 3.5 2.6 49.6 64.6 0.00 0.0000000 58.7
2020-09-27 06:50:00 50.7 30.1 20.5 50.7 50.7 2.4 4.4 2.8 76.4 28.0 0.00 0.0000000 58.7
2020-09-27 06:55:00 50.7 30.4 20.7 50.7 50.7 2.1 2.6 1.8 52.5 50.4 0.00 0.0010000 58.7
2020-09-27 07:00:00 50.2 29.3 19.4 50.2 50.2 3.8 3.8 2.4 51.5 46.7 0.00 0.0020000 58.6
2020-09-27 07:05:00 49.6 29.2 18.7 49.6 49.6 3.0 3.7 2.7 50.0 60.8 0.00 0.0030000 58.6
2020-09-27 07:10:00 49.1 30.5 19.4 49.1 49.1 2.8 2.8 2.1 67.4 69.1 0.00 0.0060000 58.6
2020-09-27 07:15:00 48.0 30.9 18.8 48.0 48.0 2.2 3.1 2.4 68.8 73.9 0.00 0.0100000 58.6
2020-09-27 07:20:00 47.0 32.1 18.8 47.0 47.0 2.2 3.0 2.4 71.1 85.8 0.00 0.0140000 58.5
2020-09-27 07:25:00 47.7 31.2 18.7 47.7 47.7 2.6 3.0 2.4 83.9 78.7 0.00 0.0180000 58.5
2020-09-27 07:30:00 48.2 30.9 18.9 48.2 48.2 2.2 3.3 2.5 98.1 80.7 0.00 0.0220000 58.4
2020-09-27 07:35:00 49.2 33.8 21.9 48.7 49.2 3.1 3.3 2.6 122.6 91.9 0.00 0.0240000 58.4
2020-09-27 07:40:00 50.5 35.0 23.8 50.5 50.5 1.2 3.5 2.0 83.0 107.2 0.00 0.0280000 58.4
2020-09-27 07:45:00 51.3 32.8 23.0 51.3 51.3 1.3 2.8 1.8 69.9 88.6 0.00 0.0340000 58.3
2020-09-27 07:50:00 52.5 35.4 25.9 52.5 52.5 1.9 5.6 3.0 145.2 127.4 0.00 0.0930000 58.3
2020-09-27 07:55:00 53.7 34.8 26.5 53.7 53.7 4.0 4.0 2.4 162.9 118.2 0.00 0.1120000 58.3
2020-09-27 08:00:00 54.3 35.6 27.6 54.3 54.3 1.0 5.1 2.4 346.0 106.8 0.00 0.1360000 58.3
2020-09-27 08:05:00 55.9 33.6 27.6 55.9 55.9 4.4 4.9 3.3 172.1 159.1 0.00 0.1540000 58.2
2020-09-27 08:10:00 57.1 32.1 27.6 57.1 57.1 4.0 4.9 3.7 161.5 168.1 0.00 0.1710000 58.2
2020-09-27 08:15:00 58.1 31.1 27.7 58.1 58.1 3.8 4.4 3.3 163.9 166.0 0.00 0.1860000 58.2
2020-09-27 08:20:00 59.3 34.6 31.3 59.3 59.3 1.0 4.2 2.1 226.6 244.9 0.00 0.2020000 58.2
2020-09-27 08:25:00 60.0 29.6 28.1 60.0 60.0 3.7 4.2 2.9 200.5 201.5 0.00 0.2180000 58.2
2020-09-27 08:30:00 61.2 28.5 28.3 61.2 61.2 2.6 4.4 3.3 204.9 216.1 0.00 0.2370000 58.2
2020-09-27 08:35:00 61.8 29.7 29.8 61.8 61.8 2.4 3.0 2.4 215.5 240.4 0.00 0.2540000 58.2
2020-09-27 08:40:00 62.6 24.4 25.7 62.6 62.6 3.8 4.6 3.5 219.2 224.3 0.00 0.2690000 58.2
2020-09-27 08:45:00 63.1 25.2 26.9 63.1 63.1 4.2 4.6 3.5 234.8 241.8 0.00 0.2870000 58.2
2020-09-27 08:50:00 64.0 28.9 31.0 64.0 64.0 2.4 5.1 3.4 266.4 228.0 0.00 0.3040000 58.2
2020-09-27 08:55:00 64.3 24.1 26.8 64.3 64.3 4.2 5.6 4.2 243.2 226.6 0.00 0.3200000 58.3
2020-09-27 09:00:00 64.3 24.0 26.8 64.3 64.3 2.8 4.9 4.0 219.8 233.1 0.00 0.3420000 58.3
2020-09-27 09:05:00 64.8 24.5 27.6 64.8 64.8 4.0 5.3 4.2 238.1 215.6 0.00 0.3520000 58.4
2020-09-27 09:10:00 65.0 25.0 28.3 65.0 65.0 4.2 6.2 4.5 242.6 229.3 0.00 0.3670000 58.4
2020-09-27 09:15:00 65.3 23.6 27.1 65.3 65.3 4.7 6.9 4.9 261.4 242.3 0.00 0.3830000 58.5
2020-09-27 09:20:00 66.0 20.7 24.6 66.0 66.0 6.7 6.9 4.9 244.8 238.3 0.00 0.3980000 58.6
2020-09-27 09:25:00 66.0 21.7 25.8 66.0 66.0 6.0 6.7 5.1 246.8 249.0 0.00 0.4140000 58.7
2020-09-27 09:30:00 66.2 21.8 26.0 66.2 66.2 6.2 6.5 4.9 245.0 266.2 0.00 0.4290000 58.7
2020-09-27 09:35:00 66.8 22.5 27.3 66.8 66.8 3.7 9.2 5.4 292.1 279.1 0.00 0.4440000 58.8
2020-09-27 09:40:00 67.4 21.7 26.9 67.4 67.4 5.5 8.8 5.7 252.3 282.6 0.00 0.4580000 58.9
2020-09-27 09:45:00 67.9 19.8 25.1 67.9 67.9 6.3 10.8 5.6 294.5 285.4 0.00 0.4710000 59.0
2020-09-27 09:50:00 67.7 21.1 26.4 67.7 67.7 8.1 8.5 6.5 281.5 278.3 0.00 0.4850000 59.1
2020-09-27 09:55:00 68.1 20.7 26.3 68.1 68.1 7.2 8.8 5.9 268.9 272.7 0.00 0.4990000 59.2
2020-09-27 10:00:00 68.1 20.2 25.7 68.1 68.1 9.7 10.1 6.9 252.3 263.7 0.00 0.5110000 59.3
2020-09-27 10:05:00 68.5 21.5 27.6 68.5 68.5 6.2 8.5 6.3 269.2 281.4 0.00 0.5230000 59.4
2020-09-27 10:10:00 69.2 21.0 27.5 69.2 69.2 4.0 9.6 6.6 294.3 276.4 0.00 0.5370000 59.6
2020-09-27 10:15:00 69.4 19.2 25.7 69.4 69.4 8.3 8.8 6.2 274.5 304.7 0.00 0.5520000 59.7
2020-09-27 10:20:00 69.2 19.4 25.7 69.2 69.2 11.2 11.2 7.2 307.6 298.8 0.00 0.5650000 59.8
2020-09-27 10:25:00 68.6 21.4 27.5 68.6 68.6 6.9 11.7 7.7 4.2 299.2 0.00 0.5790000 59.9
2020-09-27 10:30:00 68.4 21.5 27.5 68.4 68.4 7.1 10.6 7.3 309.0 299.2 0.00 0.5910000 60.0
2020-09-27 10:35:00 69.0 21.9 28.4 69.0 69.0 6.5 10.1 6.8 249.1 297.6 0.00 0.6020000 60.2
2020-09-27 10:40:00 70.2 21.1 28.6 70.2 70.2 6.0 8.8 6.6 301.4 301.3 0.00 0.6130000 60.3
2020-09-27 10:45:00 70.4 21.8 29.4 70.4 70.4 7.2 8.7 6.0 270.0 293.3 0.00 0.6240000 60.5
2020-09-27 10:50:00 71.1 21.2 29.4 71.1 71.1 9.2 11.3 7.3 287.1 306.0 0.00 0.6330000 60.6
2020-09-27 10:55:00 71.6 20.6 29.1 71.6 71.6 4.4 9.6 7.2 301.6 295.6 0.00 0.6440000 60.7
2020-09-27 11:00:00 71.4 20.7 29.1 71.4 71.4 8.7 11.3 8.7 264.7 281.2 0.00 0.6540000 60.9
2020-09-27 11:05:00 71.6 20.7 29.3 71.6 71.6 7.4 11.5 7.9 281.9 280.2 0.00 0.6630000 61.0
2020-09-27 11:10:00 71.9 20.0 28.6 71.9 71.9 5.8 12.6 7.2 255.5 295.2 0.00 0.6740000 61.2
2020-09-27 11:15:00 72.2 22.1 31.3 72.2 72.2 6.3 11.7 7.7 268.2 276.1 0.00 0.6830000 61.3
2020-09-27 11:20:00 72.2 20.8 29.9 72.2 72.2 10.5 10.6 8.3 261.5 268.1 0.00 0.6930000 61.5
2020-09-27 11:25:00 72.5 22.7 32.2 72.5 72.5 7.2 11.0 7.8 315.3 295.9 0.00 0.6990000 61.6
2020-09-27 11:30:00 73.0 21.0 30.7 73.0 73.0 6.2 9.7 6.8 256.9 276.4 0.00 0.7090000 61.8
2020-09-27 11:35:00 73.1 19.3 28.7 73.1 73.1 9.9 12.8 8.2 313.7 288.5 0.00 0.7150000 62.0
2020-09-27 11:40:00 73.0 21.5 31.3 73.0 73.0 6.3 12.4 8.8 255.4 282.3 0.00 0.7250000 62.2
2020-09-27 11:45:00 73.7 21.7 32.1 73.7 73.7 9.9 13.5 8.4 261.4 283.6 0.00 0.7320000 62.3
2020-09-27 11:50:00 74.3 22.1 33.1 74.3 74.3 9.9 14.6 9.4 315.6 280.5 0.00 0.7370000 62.5
2020-09-27 11:55:00 74.2 22.3 33.2 74.2 74.2 13.1 18.3 10.4 320.4 284.1 0.00 0.7440000 62.7
2020-09-27 12:00:00 74.5 22.5 33.7 74.5 74.5 9.4 15.5 10.4 261.1 286.9 0.00 0.7510000 62.8
2020-09-27 12:05:00 74.8 21.0 32.2 74.8 74.8 10.8 13.7 9.5 286.5 296.1 0.00 0.7560000 63.0
2020-09-27 12:10:00 74.2 22.3 33.2 74.2 74.2 11.7 15.8 11.8 302.6 312.6 0.00 0.7610000 63.2
2020-09-27 12:15:00 75.2 22.1 33.8 75.2 75.2 9.4 13.9 8.3 248.5 293.6 0.00 0.7660000 63.3
2020-09-27 12:20:00 74.7 23.4 34.8 74.7 74.7 6.9 15.3 10.9 286.2 288.0 0.00 0.7690000 63.4
2020-09-27 12:25:00 74.6 22.6 33.9 74.6 74.6 11.5 16.9 10.9 329.3 296.6 0.00 0.7750000 63.6
2020-09-27 12:30:00 75.0 21.5 33.0 75.0 75.0 10.5 13.7 10.8 320.7 287.1 0.00 0.7750000 63.8
2020-09-27 12:35:00 75.3 21.5 33.2 75.3 75.3 13.1 15.6 10.0 302.5 284.7 0.00 0.7770000 63.9
2020-09-27 12:40:00 75.3 22.3 34.1 75.3 75.3 9.9 15.5 11.7 242.0 281.1 0.00 0.7800000 64.1
2020-09-27 12:45:00 75.8 22.4 34.6 75.8 75.8 8.3 14.6 10.3 260.3 301.3 0.00 0.7830000 64.2
2020-09-27 12:50:00 76.1 20.1 32.2 76.1 76.1 18.0 18.0 10.1 0.2 294.0 0.00 0.7830000 64.4
2020-09-27 12:55:00 75.8 20.8 32.9 75.8 75.8 6.2 15.8 11.4 296.7 298.1 0.00 0.7870000 64.5
2020-09-27 13:00:00 76.1 19.3 31.2 76.1 76.1 19.8 19.8 10.8 292.8 305.1 0.00 0.7880000 64.7
2020-09-27 13:05:00 75.8 22.1 34.3 75.8 75.8 6.7 14.0 9.8 323.3 307.3 0.00 0.7870000 64.8
2020-09-27 13:10:00 76.3 20.3 32.6 76.3 76.3 7.8 17.6 11.2 273.5 301.9 0.00 0.7900000 64.9
2020-09-27 13:15:00 76.2 20.0 32.2 76.2 76.2 11.5 18.1 12.1 266.9 278.8 0.00 0.7870000 65.0
2020-09-27 13:20:00 76.2 20.3 32.5 76.2 76.2 8.1 14.6 9.9 290.3 295.1 0.00 0.7860000 65.2
2020-09-27 13:25:00 76.7 20.8 33.6 76.7 76.7 8.1 16.5 9.7 290.2 287.1 0.00 0.7810000 65.3
2020-09-27 13:30:00 76.6 21.3 34.1 76.6 76.6 14.0 16.4 11.2 304.0 288.4 0.00 0.7810000 65.4
2020-09-27 13:35:00 76.2 21.1 33.5 76.2 76.2 9.4 18.0 11.6 268.4 279.9 0.00 0.7810000 65.5
2020-09-27 13:40:00 76.7 22.6 35.7 76.7 76.7 9.2 15.3 10.3 288.8 283.1 0.00 0.7770000 65.7
2020-09-27 13:45:00 76.7 21.8 34.8 76.7 76.7 8.5 14.7 9.4 278.8 301.0 0.00 0.7760000 65.8
2020-09-27 13:50:00 76.9 20.8 33.8 76.9 76.9 15.1 15.1 11.2 289.2 282.4 0.00 0.7720000 65.9
2020-09-27 13:55:00 77.2 21.7 35.1 77.2 77.2 8.7 18.0 11.6 314.2 280.9 0.00 0.7660000 66.0
2020-09-27 14:00:00 77.2 20.8 34.0 77.2 77.2 10.8 17.4 12.2 285.5 286.6 0.00 0.7600000 66.1
2020-09-27 14:05:00 77.2 20.6 33.7 77.2 77.2 10.8 18.3 12.1 257.4 285.1 0.00 0.7600000 66.2
2020-09-27 14:10:00 77.6 20.3 33.7 77.6 77.6 13.1 14.9 10.3 308.7 275.9 0.00 0.7530000 66.3
2020-09-27 14:15:00 77.4 20.1 33.3 77.4 77.4 16.9 17.1 11.1 250.0 290.9 0.00 0.7480000 66.4
2020-09-27 14:20:00 77.0 20.8 33.9 77.0 77.0 8.7 17.1 12.7 280.4 280.3 0.00 0.7400000 66.5
2020-09-27 14:25:00 77.2 20.4 33.5 77.2 77.2 9.4 16.4 11.8 298.7 275.9 0.00 0.7290000 66.6
2020-09-27 14:30:00 77.2 20.2 33.2 77.2 77.2 10.3 16.7 11.2 300.5 294.3 0.00 0.7260000 66.7
2020-09-27 14:35:00 77.3 20.7 33.9 77.3 77.3 8.8 16.4 11.5 332.2 288.1 0.00 0.7170000 66.7
2020-09-27 14:40:00 78.1 20.4 34.2 78.1 78.1 9.7 14.6 11.3 254.3 278.3 0.00 0.7110000 66.8
2020-09-27 14:45:00 78.1 20.1 33.9 78.1 78.1 6.3 13.3 10.1 273.3 297.7 0.00 0.7010000 66.9
2020-09-27 14:50:00 78.8 17.9 31.5 78.8 78.8 13.7 19.0 12.0 291.9 285.1 0.00 0.6990000 66.9
2020-09-27 14:55:00 78.0 18.5 31.7 78.0 78.0 14.2 18.7 12.4 284.3 284.0 0.00 0.6860000 67.0
2020-09-27 15:00:00 78.1 17.8 30.8 78.1 78.1 14.4 18.9 11.3 284.6 283.6 0.00 0.6830000 67.1
2020-09-27 15:05:00 78.3 18.4 31.9 78.3 78.3 11.3 18.9 13.0 285.0 281.2 0.00 0.6710000 67.1
2020-09-27 15:10:00 78.1 19.2 32.8 78.1 78.1 15.1 16.0 11.5 281.5 281.1 0.00 0.6480000 67.2
2020-09-27 15:15:00 78.3 18.4 31.8 78.3 78.3 8.1 14.4 10.7 287.0 288.2 0.00 0.6520000 67.2
2020-09-27 15:20:00 78.9 18.6 32.6 78.9 78.9 9.2 16.2 10.1 295.4 295.9 0.00 0.6450000 67.2
2020-09-27 15:25:00 78.3 18.5 31.9 78.3 78.3 11.5 16.4 9.9 268.3 277.9 0.00 0.6190000 67.3
2020-09-27 15:30:00 78.7 19.6 33.7 78.7 78.7 10.1 13.7 9.3 333.6 286.4 0.00 0.6290000 67.3
2020-09-27 15:35:00 78.5 17.4 30.6 78.5 78.5 9.4 17.8 12.5 289.9 283.4 0.00 0.6020000 67.3
2020-09-27 15:40:00 78.6 17.4 30.7 78.6 78.6 14.6 15.3 10.9 275.7 307.5 0.00 0.5680000 67.3
2020-09-27 15:45:00 78.4 16.7 29.5 78.4 78.4 11.9 20.1 12.1 311.4 287.7 0.00 0.5700000 67.3
2020-09-27 15:50:00 78.6 17.3 30.6 78.6 78.6 6.5 16.5 11.0 318.2 294.5 0.00 0.5580000 67.3
2020-09-27 15:55:00 79.0 16.9 30.2 79.0 79.0 9.6 16.0 10.8 298.3 297.4 0.00 0.5700000 67.3
2020-09-27 16:00:00 79.5 16.1 29.6 79.5 79.5 8.7 19.0 9.9 261.8 301.6 0.00 0.5220000 67.3
2020-09-27 16:05:00 78.5 18.5 32.1 78.5 78.5 11.2 17.2 12.2 300.2 279.5 0.00 0.5440000 67.3
2020-09-27 16:10:00 78.7 18.9 32.8 78.7 78.7 10.5 14.4 10.3 294.0 296.2 0.00 0.4350000 67.3
2020-09-27 16:15:00 78.9 16.8 30.1 78.9 78.9 8.0 15.8 9.7 322.2 296.2 0.00 0.5120000 67.3
2020-09-27 16:20:00 78.7 16.8 29.9 78.7 78.7 9.9 13.9 9.9 299.2 298.5 0.00 0.4950000 67.3
2020-09-27 16:25:00 79.3 16.4 29.9 79.3 79.3 11.3 13.9 9.0 312.6 310.4 0.00 0.4680000 67.3
2020-09-27 16:30:00 78.9 17.2 30.7 78.9 78.9 9.2 14.7 10.3 298.4 287.1 0.00 0.4590000 67.2
2020-09-27 16:35:00 78.9 15.7 28.4 78.9 78.9 7.2 15.6 10.9 315.5 300.0 0.00 0.4350000 67.2
2020-09-27 16:40:00 78.9 15.8 28.6 78.9 78.9 12.6 15.8 10.0 308.8 282.7 0.00 0.4410000 67.2
2020-09-27 16:45:00 79.2 16.8 30.3 79.2 79.2 10.3 13.7 9.2 344.6 297.5 0.00 0.4240000 67.2
2020-09-27 16:50:00 78.9 16.2 29.3 78.9 78.9 8.5 13.0 9.6 310.4 298.5 0.00 0.3980000 67.1
2020-09-27 16:55:00 79.0 16.1 29.2 79.0 79.0 11.2 15.3 9.8 264.2 298.8 0.00 0.3970000 67.1
2020-09-27 17:00:00 79.0 16.0 29.0 79.0 79.0 5.1 14.0 8.4 320.3 297.4 0.00 0.3720000 67.1
2020-09-27 17:05:00 79.0 14.5 26.6 79.0 79.0 10.1 12.4 8.7 273.7 294.1 0.00 0.3590000 67.0
2020-09-27 17:10:00 79.2 14.6 26.8 79.2 79.2 9.9 12.8 9.0 289.9 297.5 0.00 0.3290000 67.0
2020-09-27 17:15:00 78.7 13.7 25.0 78.7 78.7 12.1 15.5 9.4 263.7 298.5 0.00 0.3310000 67.0
2020-09-27 17:20:00 78.6 14.6 26.4 78.6 78.6 5.3 12.6 8.2 265.0 284.0 0.00 0.3180000 67.0
2020-09-27 17:25:00 78.7 14.0 25.5 78.7 78.7 11.7 11.7 7.5 300.4 296.2 0.00 0.3010000 66.9
2020-09-27 17:30:00 78.5 14.1 25.6 78.5 78.5 7.6 12.1 8.6 278.5 277.3 0.00 0.2560000 66.8
2020-09-27 17:35:00 79.1 14.0 25.8 79.1 79.1 7.1 9.9 7.6 297.2 288.0 0.00 0.2650000 66.8
2020-09-27 17:40:00 78.4 14.3 25.8 78.4 78.4 6.9 12.6 8.8 295.5 289.8 0.00 0.2550000 66.8
2020-09-27 17:45:00 78.3 15.1 27.1 78.3 78.3 7.1 11.7 8.1 271.0 287.3 0.00 0.2280000 66.7
2020-09-27 17:50:00 78.0 15.9 28.0 78.0 78.0 5.5 11.3 8.7 286.8 275.0 0.00 0.2060000 66.7
2020-09-27 17:55:00 77.6 14.6 25.6 77.6 77.6 7.6 14.7 8.3 268.9 281.6 0.00 0.1600000 66.6
2020-09-27 18:00:00 77.4 15.9 27.6 77.4 77.4 6.0 13.5 9.1 311.7 270.8 0.00 0.1590000 66.6
2020-09-27 18:05:00 77.2 15.3 26.3 77.2 77.2 7.1 11.3 7.3 300.1 272.7 0.00 0.1410000 66.5
2020-09-27 18:10:00 77.0 15.8 27.1 77.0 77.0 5.3 13.7 7.8 278.7 278.0 0.00 0.1350000 66.5
2020-09-27 18:15:00 76.9 15.5 26.6 76.9 76.9 13.1 13.3 9.2 288.5 281.7 0.00 0.1290000 66.4
2020-09-27 18:20:00 76.4 15.8 26.5 76.4 76.4 7.8 13.1 8.6 304.3 290.3 0.00 0.0630000 66.3
2020-09-27 18:25:00 75.8 16.2 26.7 75.8 75.8 7.2 11.0 7.9 326.3 295.1 0.00 0.0330000 66.3
2020-09-27 18:30:00 75.1 16.7 26.8 75.1 75.1 8.0 12.8 7.4 287.4 305.1 0.00 0.0250000 66.2
2020-09-27 18:35:00 75.0 17.2 27.5 75.0 75.0 2.8 10.8 6.6 280.6 302.1 0.00 0.0280000 66.1
2020-09-27 18:40:00 74.4 17.5 27.4 74.4 74.4 8.7 8.7 5.8 309.3 298.1 0.00 0.0310000 66.1
2020-09-27 18:45:00 74.0 18.2 28.1 74.0 74.0 4.6 9.4 7.1 305.5 304.2 0.00 0.0120000 66.0
2020-09-27 18:50:00 73.9 16.9 26.2 73.9 73.9 9.7 13.9 8.2 314.0 302.0 0.00 0.0170000 65.9
2020-09-27 18:55:00 74.0 17.0 26.3 74.0 74.0 5.1 10.5 7.9 326.1 296.3 0.00 0.0100000 65.9
2020-09-27 19:00:00 73.3 16.5 25.1 73.3 73.3 11.9 11.9 6.8 293.3 298.1 0.00 0.0060000 65.8
2020-09-27 19:05:00 72.7 17.4 25.9 72.7 72.7 5.8 9.2 6.3 274.6 290.6 0.00 0.0030000 65.7
2020-09-27 19:10:00 72.1 17.4 25.5 72.1 72.1 4.9 7.2 4.8 292.6 297.1 0.00 0.0020000 65.7
2020-09-27 19:15:00 71.5 18.2 26.0 71.5 71.5 6.5 6.7 4.5 307.5 293.2 0.00 0.0010000 65.6
2020-09-27 19:20:00 71.2 18.7 26.4 71.2 71.2 3.5 7.2 5.3 318.3 294.1 0.00 0.0000000 65.5
2020-09-27 19:25:00 70.7 18.0 25.1 70.7 70.7 6.3 8.0 5.3 339.2 303.0 0.00 0.0000000 65.5
2020-09-27 19:30:00 70.9 17.8 25.0 70.9 70.9 6.5 8.7 5.2 319.1 314.7 0.00 0.0000000 65.4
2020-09-27 19:35:00 70.4 16.7 23.1 70.4 70.4 4.2 8.1 4.9 290.6 310.7 0.00 0.0000000 65.3
2020-09-27 19:40:00 70.1 15.8 21.6 70.1 70.1 8.0 8.3 5.3 338.6 312.3 0.00 0.0000000 65.2
2020-09-27 19:45:00 70.1 15.6 21.3 70.1 70.1 6.0 8.8 5.4 295.9 317.4 0.00 0.0000000 65.2
2020-09-27 19:50:00 69.8 15.2 20.3 69.8 69.8 3.7 6.9 5.1 311.7 313.6 0.00 0.0000000 65.1
2020-09-27 19:55:00 69.3 15.6 20.6 69.3 69.3 4.6 6.9 4.9 318.9 319.0 0.00 0.0000000 65.0
2020-09-27 20:00:00 69.0 15.2 19.7 69.0 69.0 7.2 7.8 5.3 289.4 311.1 0.00 0.0000000 65.0
2020-09-27 20:05:00 68.7 15.9 20.6 68.7 68.7 3.7 8.0 5.2 291.8 304.7 0.00 0.0000000 64.9
2020-09-27 20:10:00 68.3 15.6 19.8 68.3 68.3 5.3 8.0 4.9 268.8 320.2 0.00 0.0000000 64.8
2020-09-27 20:15:00 68.2 15.4 19.4 68.2 68.2 6.0 7.6 4.7 291.8 314.4 0.00 0.0000000 64.8
2020-09-27 20:20:00 68.4 15.4 19.5 68.4 68.4 5.8 6.5 4.5 305.6 317.3 0.00 0.0000000 64.7
2020-09-27 20:25:00 68.2 16.6 21.1 68.2 68.2 3.5 6.0 3.6 311.7 318.2 0.00 0.0000000 64.6
2020-09-27 20:30:00 67.5 17.3 21.6 67.5 67.5 4.2 4.7 3.2 303.2 302.0 0.00 0.0000000 64.6
2020-09-27 20:35:00 67.0 17.0 20.7 67.0 67.0 2.8 6.0 3.7 298.8 297.3 0.00 0.0000000 64.5
2020-09-27 20:40:00 65.7 17.9 20.9 65.7 65.7 3.7 4.0 2.8 298.8 291.1 0.00 0.0000000 64.4
2020-09-27 20:45:00 65.0 17.8 20.1 65.0 65.0 3.5 5.6 3.7 293.3 294.2 0.00 0.0000000 64.3
2020-09-27 20:50:00 64.1 19.1 21.1 64.1 64.1 3.0 4.4 3.2 240.9 291.7 0.00 0.0000000 64.3
2020-09-27 20:55:00 63.3 18.1 19.2 63.3 63.3 4.7 5.1 3.7 291.0 290.6 0.00 0.0000000 64.2
2020-09-27 21:00:00 63.2 18.9 20.1 63.2 63.2 4.2 5.1 3.7 290.0 294.0 0.00 0.0000000 64.1

Data is courtesy of the NM Climate Center. DO NOT USE IN LEGAL PROCEEDINGS.